Time;durP1;ratioP1;P1;durP2;ratioP2;P2;SDS_P1;SDS_P2;PMS_P1;PMS_P2;Temp;Humidity;BMP_temperature;BMP_pressure;BME280_temperature;BME280_humidity;BME280_pressure;Samples;Min_cycle;Max_cycle;Signal;HPM_P1;HPM_P2
2023/02/26 00:01:36;;;;;;;1.20;0.80;;;1.30;99.90;;;;;;5099982;28;20438;-56
2023/02/26 00:04:05;;;;;;;0.90;0.80;;;1.30;99.90;;;;;;5099516;28;20446;-61
2023/02/26 00:06:33;;;;;;;1.03;0.80;;;1.30;99.90;;;;;;5099685;28;20426;-60
2023/02/26 00:09:00;;;;;;;4.13;1.07;;;1.30;99.90;;;;;;5099913;28;20427;-59
2023/02/26 00:11:27;;;;;;;2.83;0.90;;;1.20;99.90;;;;;;5099409;28;20458;-57
2023/02/26 00:13:55;;;;;;;1.57;0.80;;;1.30;99.90;;;;;;5099424;28;20447;-59
2023/02/26 00:16:30;;;;;;;1.57;0.90;;;1.20;99.90;;;;;;5098723;28;20473;-64
2023/02/26 00:19:00;;;;;;;0.80;0.70;;;1.30;99.90;;;;;;5098816;28;20407;-61
2023/02/26 00:21:28;;;;;;;4.40;1.50;;;1.30;99.90;;;;;;5098354;28;20483;-63
2023/02/26 00:23:56;;;;;;;1.83;1.00;;;1.30;99.90;;;;;;5097714;28;20438;-62
2023/02/26 00:26:25;;;;;;;0.90;0.70;;;1.30;99.90;;;;;;5098644;28;20434;-56
2023/02/26 00:28:53;;;;;;;1.07;0.90;;;1.30;99.90;;;;;;5098965;28;20415;-58
2023/02/26 00:31:23;;;;;;;2.90;0.83;;;1.40;99.90;;;;;;5098298;28;20485;-62
2023/02/26 00:33:52;;;;;;;1.67;0.90;;;1.40;99.90;;;;;;5097550;28;20466;-60
2023/02/26 00:36:22;;;;;;;1.30;1.20;;;1.40;99.90;;;;;;5097328;28;20434;-59
2023/02/26 00:39:02;;;;;;;1.00;0.70;;;1.40;99.90;;;;;;5097532;28;20455;-63
2023/02/26 00:41:32;;;;;;;1.83;0.90;;;1.50;99.90;;;;;;5097437;28;20435;-63
2023/02/26 00:44:00;;;;;;;1.97;0.67;;;1.50;99.90;;;;;;5097140;28;20481;-59
2023/02/26 00:46:38;;;;;;;2.50;0.97;;;1.50;99.90;;;;;;5097278;28;20439;-60
2023/02/26 00:49:18;;;;;;;1.77;0.70;;;1.60;99.90;;;;;;5097346;28;20481;-59
2023/02/26 00:51:49;;;;;;;2.43;1.13;;;1.60;99.90;;;;;;5097305;28;20446;-62
2023/02/26 00:54:20;;;;;;;4.63;1.90;;;1.60;99.90;;;;;;5097403;28;20422;-63
2023/02/26 00:56:49;;;;;;;3.00;1.53;;;1.60;99.90;;;;;;5097407;28;20442;-60
2023/02/26 00:59:16;;;;;;;2.17;1.13;;;1.60;99.90;;;;;;5096921;28;20453;-63
2023/02/26 01:01:47;;;;;;;0.90;0.70;;;1.50;99.90;;;;;;5096010;28;20437;-61
2023/02/26 01:04:17;;;;;;;3.10;0.83;;;1.50;99.90;;;;;;5096422;28;20411;-62
2023/02/26 01:06:52;;;;;;;2.67;1.07;;;1.50;99.90;;;;;;5096329;28;20458;-62
2023/02/26 01:09:25;;;;;;;2.30;1.20;;;1.50;99.90;;;;;;5095922;28;20414;-61
2023/02/26 01:11:53;;;;;;;0.90;0.70;;;1.50;99.90;;;;;;5095485;28;20486;-61
2023/02/26 01:14:21;;;;;;;0.87;0.70;;;1.60;99.90;;;;;;5095670;28;20473;-63
2023/02/26 01:16:54;;;;;;;0.90;0.60;;;1.60;99.90;;;;;;5095533;28;20453;-62
2023/02/26 01:19:33;;;;;;;3.17;1.43;;;1.60;99.90;;;;;;5095689;28;20434;-61
2023/02/26 01:22:07;;;;;;;2.50;0.80;;;1.70;99.90;;;;;;5096311;28;20430;-63
2023/02/26 01:24:35;;;;;;;7.80;0.90;;;1.70;99.90;;;;;;5095079;28;20465;-63
2023/02/26 01:27:02;;;;;;;0.87;0.60;;;1.70;99.90;;;;;;5096363;28;20907;-60
2023/02/26 01:29:30;;;;;;;1.30;0.97;;;1.70;99.90;;;;;;5096598;28;20478;-61
2023/02/26 01:32:03;;;;;;;1.10;0.70;;;1.70;99.90;;;;;;5096476;28;20493;-63
2023/02/26 01:34:37;;;;;;;8.33;1.70;;;1.80;99.90;;;;;;5096843;28;20457;-61
2023/02/26 01:37:13;;;;;;;2.97;0.80;;;1.70;99.90;;;;;;5096025;28;20462;-61
2023/02/26 01:39:50;;;;;;;1.30;0.60;;;1.80;99.90;;;;;;5096105;28;20466;-61
2023/02/26 01:42:21;;;;;;;1.27;1.03;;;1.80;99.90;;;;;;5095845;28;20462;-62
2023/02/26 01:44:55;;;;;;;1.03;0.80;;;1.80;99.90;;;;;;5095944;28;20437;-63
2023/02/26 01:47:32;;;;;;;0.90;0.60;;;1.80;99.90;;;;;;5095657;28;20418;-62
2023/02/26 01:50:12;;;;;;;4.40;2.10;;;1.90;99.90;;;;;;5095670;28;20427;-57
2023/02/26 01:53:18;;;;;;;1.30;0.80;;;1.90;99.90;;;;;;5095718;28;20466;-62
2023/02/26 01:55:50;;;;;;;4.97;1.10;;;1.90;99.90;;;;;;5095661;28;20461;-61
2023/02/26 01:58:18;;;;;;;1.47;0.90;;;1.90;99.90;;;;;;5096164;28;20427;-60
2023/02/26 02:00:46;;;;;;;1.10;0.70;;;1.90;99.90;;;;;;5095796;28;20928;-66
2023/02/26 02:03:13;;;;;;;1.20;0.80;;;1.90;99.90;;;;;;5095696;28;20434;-57
2023/02/26 02:05:47;;;;;;;5.13;1.27;;;2.00;99.90;;;;;;5095924;28;20454;-60
2023/02/26 02:08:14;;;;;;;0.90;0.70;;;1.90;99.90;;;;;;5096605;28;20594;-59
2023/02/26 02:10:44;;;;;;;0.90;0.70;;;1.90;99.90;;;;;;5097661;28;20445;-62
2023/02/26 02:13:26;;;;;;;0.90;0.70;;;1.90;99.90;;;;;;5097978;28;20493;-62
2023/02/26 02:16:02;;;;;;;3.90;0.77;;;1.90;99.90;;;;;;5101748;28;20426;-58
2023/02/26 02:18:38;;;;;;;0.80;0.60;;;1.90;99.90;;;;;;5101089;28;20434;-61
2023/02/26 02:21:29;;;;;;;1.40;0.90;;;1.90;99.90;;;;;;5101113;28;20414;-62
2023/02/26 02:24:02;;;;;;;1.67;1.30;;;1.90;99.90;;;;;;5100143;28;20447;-61
2023/02/26 02:26:48;;;;;;;1.10;0.70;;;1.90;99.90;;;;;;5100137;28;20422;-61
2023/02/26 02:29:41;;;;;;;1.50;1.20;;;1.90;99.90;;;;;;5089708;28;20457;-63
2023/02/26 02:32:12;;;;;;;1.63;0.90;;;1.90;99.90;;;;;;5093866;28;20482;-64
2023/02/26 02:34:46;;;;;;;1.60;0.87;;;1.90;99.90;;;;;;5099822;28;20446;-59
2023/02/26 02:37:21;;;;;;;1.50;0.80;;;1.90;99.90;;;;;;5101570;28;20415;-60
2023/02/26 02:39:52;;;;;;;1.73;0.90;;;1.90;99.90;;;;;;5101021;28;20438;-58
2023/02/26 02:42:26;;;;;;;1.30;0.83;;;1.90;99.90;;;;;;5100907;28;20492;-63
2023/02/26 02:44:58;;;;;;;0.90;0.70;;;2.00;99.90;;;;;;5100879;28;20421;-61
2023/02/26 02:47:28;;;;;;;0.97;0.70;;;1.90;99.90;;;;;;5100333;28;20493;-63
2023/02/26 02:50:05;;;;;;;2.03;0.60;;;2.00;99.90;;;;;;5100382;28;20456;-63
2023/02/26 02:52:38;;;;;;;2.13;1.40;;;1.90;99.90;;;;;;5099023;28;20531;-62
2023/02/26 02:55:18;;;;;;;1.20;0.70;;;1.90;99.90;;;;;;5098763;28;20441;-64
2023/02/26 02:57:50;;;;;;;2.70;1.23;;;1.90;99.90;;;;;;5098471;28;20451;-63
2023/02/26 03:00:21;;;;;;;1.20;0.70;;;1.90;99.90;;;;;;5098877;28;20454;-63
2023/02/26 03:02:53;;;;;;;1.10;0.60;;;1.90;99.90;;;;;;5098243;28;20439;-63
2023/02/26 03:05:20;;;;;;;0.90;0.70;;;1.80;99.90;;;;;;5097888;28;20426;-62
2023/02/26 03:07:51;;;;;;;3.10;1.03;;;1.80;99.90;;;;;;5097895;28;20453;-62
2023/02/26 03:10:20;;;;;;;2.70;0.90;;;1.90;99.90;;;;;;5097503;28;20806;-62
2023/02/26 03:12:47;;;;;;;1.20;1.10;;;1.90;99.90;;;;;;5097092;28;20489;-63
2023/02/26 03:15:15;;;;;;;0.90;0.80;;;1.80;99.90;;;;;;5097006;28;20492;-65
2023/02/26 03:17:50;;;;;;;2.30;0.77;;;1.80;99.90;;;;;;5097840;28;20430;-63
2023/02/26 03:20:25;;;;;;;0.90;0.67;;;1.80;99.90;;;;;;5097402;28;20434;-64
2023/02/26 03:23:05;;;;;;;1.00;0.73;;;1.80;99.90;;;;;;5097497;28;20406;-62
2023/02/26 03:25:44;;;;;;;1.43;0.80;;;1.80;99.90;;;;;;5096869;28;20502;-63
2023/02/26 03:28:18;;;;;;;0.93;0.73;;;1.80;99.90;;;;;;5097556;28;20422;-63
2023/02/26 03:30:52;;;;;;;1.47;0.80;;;1.90;99.90;;;;;;5097542;28;20422;-62
2023/02/26 03:33:24;;;;;;;1.93;1.20;;;1.80;99.90;;;;;;5097479;28;20486;-59
2023/02/26 03:35:57;;;;;;;0.90;0.60;;;1.70;99.90;;;;;;5097116;28;20435;-62
2023/02/26 03:38:37;;;;;;;0.90;0.80;;;1.70;99.90;;;;;;5098029;28;20462;-59
2023/02/26 03:41:09;;;;;;;6.50;1.73;;;1.70;99.90;;;;;;5097834;28;20422;-62
2023/02/26 03:43:40;;;;;;;1.20;0.70;;;1.80;99.90;;;;;;5097242;28;20486;-64
2023/02/26 03:46:13;;;;;;;1.40;0.90;;;1.70;99.90;;;;;;5096978;28;20441;-62
2023/02/26 03:48:40;;;;;;;2.10;1.10;;;2.40;99.90;;;;;;5097108;28;20442;-61
2023/02/26 03:51:13;;;;;;;2.40;0.90;;;1.70;99.90;;;;;;5097208;28;20454;-62
2023/02/26 03:53:47;;;;;;;1.00;0.60;;;1.70;99.90;;;;;;5097313;28;20504;-62
2023/02/26 03:56:19;;;;;;;1.40;0.83;;;1.70;99.90;;;;;;5097876;28;20458;-62
2023/02/26 03:58:46;;;;;;;2.37;0.90;;;1.70;99.90;;;;;;5097463;28;20446;-60
2023/02/26 04:01:18;;;;;;;1.30;0.90;;;1.70;99.90;;;;;;5097937;28;20470;-62
2023/02/26 04:03:50;;;;;;;1.47;0.83;;;1.70;99.90;;;;;;5097993;28;20466;-62
2023/02/26 04:06:19;;;;;;;1.33;0.80;;;1.70;99.90;;;;;;5098362;28;20494;-62
2023/02/26 04:08:46;;;;;;;1.30;0.77;;;1.70;99.90;;;;;;5097720;28;20564;-62
2023/02/26 04:11:18;;;;;;;0.90;0.70;;;1.70;99.90;;;;;;5096675;28;20482;-63
2023/02/26 04:13:45;;;;;;;1.10;0.80;;;1.80;99.90;;;;;;5096981;28;20478;-64
2023/02/26 04:16:19;;;;;;;1.30;1.07;;;1.80;99.90;;;;;;5097001;28;20450;-62
2023/02/26 04:18:49;;;;;;;1.20;0.90;;;1.80;99.90;;;;;;5096162;28;20427;-62
2023/02/26 04:21:20;;;;;;;2.93;0.80;;;1.80;99.90;;;;;;5097004;28;20476;-60
2023/02/26 04:23:49;;;;;;;1.30;0.80;;;1.80;99.90;;;;;;5096970;28;20431;-63
2023/02/26 04:26:19;;;;;;;0.80;0.60;;;1.80;99.90;;;;;;5096427;28;20473;-62
2023/02/26 04:28:46;;;;;;;2.90;1.63;;;1.80;99.90;;;;;;5096432;28;20466;-62
2023/02/26 04:31:13;;;;;;;0.97;0.80;;;1.80;99.90;;;;;;5096106;28;20461;-63
2023/02/26 04:33:43;;;;;;;1.87;1.00;;;1.80;99.90;;;;;;5097167;28;20470;-60
2023/02/26 04:36:10;;;;;;;1.13;0.90;;;1.80;99.90;;;;;;5097506;28;20498;-63
2023/02/26 04:38:39;;;;;;;1.83;0.97;;;1.80;99.90;;;;;;5096474;28;20469;-64
2023/02/26 04:41:10;;;;;;;2.50;0.90;;;1.80;99.90;;;;;;5096873;28;20433;-62
2023/02/26 04:43:37;;;;;;;1.00;0.80;;;1.90;99.90;;;;;;5097524;28;20410;-63
2023/02/26 04:46:04;;;;;;;0.80;0.50;;;1.90;99.90;;;;;;5096955;28;20458;-64
2023/02/26 04:48:34;;;;;;;1.00;0.80;;;1.90;99.90;;;;;;5096621;28;20446;-60
2023/02/26 04:51:04;;;;;;;3.10;0.90;;;2.00;99.90;;;;;;5097125;28;20502;-62
2023/02/26 04:53:31;;;;;;;1.07;0.60;;;1.90;99.90;;;;;;5097529;28;20873;-62
2023/02/26 04:55:59;;;;;;;0.90;0.70;;;1.90;99.90;;;;;;5098303;28;20458;-62
2023/02/26 04:58:26;;;;;;;1.10;0.60;;;1.90;99.90;;;;;;5097106;28;20484;-63
2023/02/26 05:00:54;;;;;;;0.90;0.60;;;1.90;99.90;;;;;;5097477;28;20442;-60
2023/02/26 05:03:24;;;;;;;1.33;0.90;;;1.90;99.90;;;;;;5097623;28;20455;-63
2023/02/26 05:05:51;;;;;;;1.93;0.80;;;1.80;99.90;;;;;;5096740;28;20441;-63
2023/02/26 05:08:18;;;;;;;1.17;0.70;;;1.80;99.90;;;;;;5096669;28;20442;-61
2023/02/26 05:10:45;;;;;;;2.20;0.67;;;1.80;99.90;;;;;;5096283;28;20445;-62
2023/02/26 05:13:15;;;;;;;1.93;0.70;;;1.80;99.90;;;;;;5095426;28;20496;-62
2023/02/26 05:15:42;;;;;;;0.87;0.63;;;1.90;99.90;;;;;;5096672;28;20466;-63
2023/02/26 05:18:09;;;;;;;2.53;0.70;;;2.00;99.90;;;;;;5096229;28;20450;-63
2023/02/26 05:20:36;;;;;;;1.20;1.10;;;2.00;99.90;;;;;;5097173;28;20498;-58
2023/02/26 05:23:03;;;;;;;2.60;1.17;;;1.90;99.90;;;;;;5095939;28;20458;-60
2023/02/26 05:25:30;;;;;;;2.07;1.77;;;2.00;99.90;;;;;;5096062;28;20484;-63
2023/02/26 05:27:59;;;;;;;2.03;0.90;;;2.00;99.90;;;;;;5095990;28;20454;-60
2023/02/26 05:30:28;;;;;;;5.73;1.47;;;1.90;99.90;;;;;;5096374;28;20470;-63
2023/02/26 05:32:55;;;;;;;2.30;0.73;;;2.00;99.90;;;;;;5095801;28;20485;-61
2023/02/26 05:35:21;;;;;;;1.20;0.80;;;1.90;99.90;;;;;;5094987;28;20486;-63
2023/02/26 05:37:49;;;;;;;1.30;0.70;;;1.90;99.90;;;;;;5094118;28;20481;-63
2023/02/26 05:40:19;;;;;;;1.30;0.77;;;1.90;99.90;;;;;;5094848;28;20446;-63
2023/02/26 05:42:46;;;;;;;1.60;0.90;;;2.00;99.90;;;;;;5094684;28;20430;-63
2023/02/26 05:45:12;;;;;;;1.03;0.67;;;2.00;99.90;;;;;;5095470;28;20468;-63
2023/02/26 05:47:41;;;;;;;1.00;0.70;;;2.00;99.90;;;;;;5095254;28;20466;-63
2023/02/26 05:50:09;;;;;;;1.67;0.70;;;2.00;99.90;;;;;;5096233;28;20438;-59
2023/02/26 05:52:36;;;;;;;2.53;1.30;;;2.00;99.90;;;;;;5096652;28;20461;-56
2023/02/26 05:55:03;;;;;;;3.70;1.00;;;1.90;99.90;;;;;;5097364;28;20425;-60
2023/02/26 05:57:30;;;;;;;2.10;0.80;;;2.00;99.90;;;;;;5096230;28;20459;-64
2023/02/26 06:00:03;;;;;;;0.90;0.60;;;1.90;99.90;;;;;;5095019;28;20438;-63
2023/02/26 06:02:30;;;;;;;2.40;0.97;;;1.90;99.90;;;;;;5095603;28;20411;-61
2023/02/26 06:04:58;;;;;;;4.47;0.80;;;2.00;99.90;;;;;;5094656;28;20453;-62
2023/02/26 06:07:30;;;;;;;3.77;0.83;;;2.00;99.90;;;;;;5094888;28;20800;-63
2023/02/26 06:09:57;;;;;;;1.27;0.70;;;2.00;99.90;;;;;;5093892;28;20470;-61
2023/02/26 06:12:24;;;;;;;1.00;0.60;;;2.00;99.90;;;;;;5094261;28;20447;-62
2023/02/26 06:14:51;;;;;;;5.33;1.10;;;2.00;99.90;;;;;;5094553;28;20462;-62
2023/02/26 06:17:18;;;;;;;1.80;1.00;;;2.00;99.90;;;;;;5094378;28;20468;-64
2023/02/26 06:19:45;;;;;;;1.63;1.20;;;2.00;99.90;;;;;;5094958;28;20438;-60
2023/02/26 06:22:21;;;;;;;1.33;0.70;;;2.00;99.90;;;;;;5094723;28;20434;-63
2023/02/26 06:24:48;;;;;;;2.00;0.90;;;2.00;99.90;;;;;;5094927;28;20440;-63
2023/02/26 06:27:16;;;;;;;0.80;0.53;;;2.10;99.90;;;;;;5093846;28;20446;-63
2023/02/26 06:29:43;;;;;;;1.53;0.83;;;2.10;99.90;;;;;;5094177;28;20449;-64
2023/02/26 06:32:10;;;;;;;2.23;0.90;;;2.10;99.90;;;;;;5094660;28;20485;-63
2023/02/26 06:34:36;;;;;;;2.30;0.90;;;2.10;99.90;;;;;;5094513;28;20524;-63
2023/02/26 06:37:05;;;;;;;1.00;0.70;;;2.10;99.90;;;;;;5094284;28;20477;-61
2023/02/26 06:39:34;;;;;;;2.37;0.80;;;2.10;99.90;;;;;;5094560;28;20523;-62
2023/02/26 06:42:01;;;;;;;1.00;0.90;;;2.20;99.90;;;;;;5094284;28;20775;-64
2023/02/26 06:44:27;;;;;;;2.60;0.80;;;2.20;99.90;;;;;;5094905;28;20419;-64
2023/02/26 06:47:00;;;;;;;1.60;0.80;;;2.20;99.90;;;;;;5094562;28;20438;-64
2023/02/26 06:49:26;;;;;;;1.73;1.00;;;2.20;99.90;;;;;;5094176;28;20547;-63
2023/02/26 06:51:53;;;;;;;1.37;0.70;;;2.20;99.90;;;;;;5095395;28;20442;-64
2023/02/26 06:54:22;;;;;;;1.63;1.07;;;2.20;99.90;;;;;;5095070;28;20489;-64
2023/02/26 06:56:51;;;;;;;5.47;3.00;;;2.30;99.90;;;;;;5094680;28;20477;-63
2023/02/26 06:59:18;;;;;;;1.87;1.27;;;2.30;99.90;;;;;;5094340;28;20496;-63
2023/02/26 07:01:45;;;;;;;0.87;0.60;;;2.40;99.90;;;;;;5096963;28;20442;-61
2023/02/26 07:04:12;;;;;;;0.90;0.70;;;2.40;99.90;;;;;;5098289;28;20438;-62
2023/02/26 07:06:39;;;;;;;1.00;0.70;;;2.40;99.90;;;;;;5098086;28;20441;-62
2023/02/26 07:09:06;;;;;;;2.00;0.80;;;2.30;99.90;;;;;;5098375;28;20430;-61
2023/02/26 07:11:32;;;;;;;1.30;0.70;;;2.30;99.90;;;;;;5097560;28;20479;-63
2023/02/26 07:14:01;;;;;;;1.20;0.73;;;2.40;99.90;;;;;;5097059;28;20564;-63
2023/02/26 07:16:31;;;;;;;2.13;0.80;;;2.40;99.90;;;;;;5097717;28;20500;-59
2023/02/26 07:18:58;;;;;;;1.10;0.80;;;2.50;99.90;;;;;;5099523;28;20949;-59
2023/02/26 07:21:24;;;;;;;1.70;1.10;;;2.50;99.90;;;;;;5098788;28;20466;-59
2023/02/26 07:23:51;;;;;;;2.40;0.70;;;2.60;99.90;;;;;;5099428;28;20438;-59
2023/02/26 07:26:18;;;;;;;2.37;1.10;;;2.70;99.90;;;;;;5099956;28;20478;-59
2023/02/26 07:28:45;;;;;;;0.93;0.70;;;2.80;99.90;;;;;;5099289;28;20493;-58
2023/02/26 07:31:15;;;;;;;4.03;1.10;;;2.90;99.90;;;;;;5098649;28;20447;-58
2023/02/26 07:33:42;;;;;;;1.00;0.83;;;2.90;99.90;;;;;;5099232;28;20494;-58
2023/02/26 07:36:15;;;;;;;1.57;0.70;;;2.90;99.90;;;;;;5098210;28;20439;-63
2023/02/26 07:38:42;;;;;;;1.30;0.90;;;3.00;99.90;;;;;;5098770;28;20459;-60
2023/02/26 07:41:11;;;;;;;3.90;0.90;;;3.00;99.90;;;;;;5099373;28;20445;-62
2023/02/26 07:43:38;;;;;;;4.30;0.90;;;2.90;99.90;;;;;;5099478;28;20466;-63
2023/02/26 07:46:05;;;;;;;0.90;0.70;;;2.70;99.90;;;;;;5099407;28;20415;-64
2023/02/26 07:48:33;;;;;;;1.97;1.30;;;2.60;99.90;;;;;;5098844;28;20426;-61
2023/02/26 07:51:00;;;;;;;1.07;0.73;;;2.50;99.90;;;;;;5097965;28;20446;-63
2023/02/26 07:53:27;;;;;;;1.30;0.80;;;2.90;99.90;;;;;;5096425;28;20541;-64
2023/02/26 07:55:54;;;;;;;1.27;0.70;;;2.50;99.90;;;;;;5096760;28;20474;-64
2023/02/26 07:58:21;;;;;;;1.70;1.10;;;2.50;99.90;;;;;;5097503;28;20442;-65
2023/02/26 08:00:48;;;;;;;4.67;1.20;;;2.50;99.90;;;;;;5097639;28;20504;-64
2023/02/26 08:03:15;;;;;;;1.20;0.90;;;2.60;99.90;;;;;;5097031;28;20446;-63
2023/02/26 08:05:43;;;;;;;1.10;0.83;;;2.60;99.90;;;;;;5097706;28;20438;-62
2023/02/26 08:08:10;;;;;;;0.90;0.70;;;2.60;99.90;;;;;;5097190;28;20442;-64
2023/02/26 08:10:40;;;;;;;2.50;0.90;;;2.60;99.90;;;;;;5096554;28;20439;-62
2023/02/26 08:13:07;;;;;;;1.77;1.10;;;2.50;99.90;;;;;;5096173;28;20434;-62
2023/02/26 08:15:34;;;;;;;1.10;1.00;;;2.50;99.90;;;;;;5096198;28;20454;-64
2023/02/26 08:18:01;;;;;;;1.50;0.73;;;2.50;99.90;;;;;;5096528;28;20446;-63
2023/02/26 08:20:28;;;;;;;1.00;0.80;;;2.50;99.90;;;;;;5096358;28;20446;-63
2023/02/26 08:22:57;;;;;;;1.43;1.00;;;2.50;99.90;;;;;;5096295;28;20474;-62
2023/02/26 08:25:24;;;;;;;1.00;0.70;;;2.60;99.90;;;;;;5096368;28;20491;-63
2023/02/26 08:27:51;;;;;;;0.90;0.60;;;2.50;99.90;;;;;;5096643;28;20481;-64
2023/02/26 08:30:18;;;;;;;1.00;0.83;;;2.60;99.90;;;;;;5096169;28;20533;-61
2023/02/26 08:32:45;;;;;;;0.90;0.70;;;2.60;99.90;;;;;;5095933;28;20458;-62
2023/02/26 08:35:12;;;;;;;1.47;1.30;;;2.60;99.90;;;;;;5095912;28;20490;-63
2023/02/26 08:37:39;;;;;;;1.20;0.73;;;2.60;99.90;;;;;;5096007;28;20442;-66
2023/02/26 08:40:10;;;;;;;2.60;1.00;;;2.60;99.90;;;;;;5097010;28;20450;-62
2023/02/26 08:42:37;;;;;;;1.40;1.00;;;2.60;99.90;;;;;;5097375;28;20439;-64
2023/02/26 08:45:04;;;;;;;6.00;1.17;;;2.70;99.90;;;;;;5097046;28;20450;-64
2023/02/26 08:47:31;;;;;;;0.80;0.60;;;2.80;99.90;;;;;;5097879;28;20419;-60
2023/02/26 08:49:58;;;;;;;4.30;0.70;;;2.70;99.90;;;;;;5097951;28;20457;-62
2023/02/26 08:52:25;;;;;;;1.47;0.70;;;2.80;99.90;;;;;;5098047;28;20449;-61
2023/02/26 08:54:52;;;;;;;1.90;0.70;;;2.80;99.90;;;;;;5097740;28;20498;-64
2023/02/26 08:57:21;;;;;;;2.03;0.97;;;2.80;99.90;;;;;;5098355;28;20467;-58
2023/02/26 08:59:47;;;;;;;7.60;1.80;;;2.90;99.90;;;;;;5098722;28;20505;-57
2023/02/26 09:02:15;;;;;;;1.20;0.90;;;2.90;99.90;;;;;;5098798;28;20474;-59
2023/02/26 09:04:42;;;;;;;1.83;1.20;;;3.00;99.90;;;;;;5097837;28;20490;-60
2023/02/26 09:07:12;;;;;;;3.90;0.90;;;3.00;99.90;;;;;;5097489;28;20457;-64
2023/02/26 09:09:39;;;;;;;4.90;0.97;;;3.10;99.90;;;;;;5097682;28;20442;-62
2023/02/26 09:12:06;;;;;;;2.50;1.00;;;3.20;99.90;;;;;;5097440;28;20430;-64
2023/02/26 09:14:36;;;;;;;1.63;1.10;;;3.20;99.90;;;;;;5097717;28;20462;-63
2023/02/26 09:17:03;;;;;;;1.00;0.80;;;3.30;99.90;;;;;;5097331;28;20449;-59
2023/02/26 09:19:30;;;;;;;5.53;1.67;;;3.40;99.90;;;;;;5097270;28;20462;-62
2023/02/26 09:21:57;;;;;;;1.07;0.87;;;3.50;99.90;;;;;;5097323;28;20457;-63
2023/02/26 09:24:24;;;;;;;1.90;1.33;;;3.60;99.90;;;;;;5095993;28;20780;-64
2023/02/26 09:26:51;;;;;;;2.47;1.13;;;3.60;99.90;;;;;;5097433;28;20457;-67
2023/02/26 09:29:18;;;;;;;5.53;1.90;;;3.80;99.90;;;;;;5097238;28;20447;-61
2023/02/26 09:31:46;;;;;;;1.50;1.00;;;3.80;99.90;;;;;;5097450;28;20454;-62
2023/02/26 09:34:13;;;;;;;1.00;0.70;;;4.00;99.90;;;;;;5097491;28;20474;-64
2023/02/26 09:36:45;;;;;;;4.30;1.37;;;4.00;99.90;;;;;;5097340;28;20469;-63
2023/02/26 09:39:12;;;;;;;1.20;0.70;;;4.10;99.90;;;;;;5097723;28;20414;-64
2023/02/26 09:41:42;;;;;;;6.20;1.87;;;4.10;99.90;;;;;;5097351;28;20457;-64
2023/02/26 09:44:23;;;;;;;36.30;17.33;;;4.10;99.90;;;;;;5097794;28;20456;-62
2023/02/26 09:47:03;;;;;;;4.13;1.87;;;4.20;99.90;;;;;;5097358;28;20426;-63
2023/02/26 09:49:55;;;;;;;3.27;1.30;;;4.60;99.90;;;;;;5097262;28;20411;-63
2023/02/26 09:52:25;;;;;;;2.37;1.03;;;5.10;99.90;;;;;;5096692;28;20410;-63
2023/02/26 09:54:56;;;;;;;2.50;1.00;;;5.40;99.90;;;;;;5096284;28;20466;-64
2023/02/26 09:57:31;;;;;;;1.40;0.93;;;5.40;99.90;;;;;;5096933;28;20446;-64
2023/02/26 09:59:59;;;;;;;1.87;1.20;;;5.80;99.90;;;;;;5096881;28;20423;-62
2023/02/26 10:02:37;;;;;;;2.73;0.90;;;7.00;99.90;;;;;;5096924;28;20481;-64
2023/02/26 10:05:17;;;;;;;1.17;0.83;;;8.20;99.90;;;;;;5096836;28;20466;-64
2023/02/26 10:07:49;;;;;;;1.93;0.90;;;9.70;99.90;;;;;;5096704;28;20453;-64
2023/02/26 10:10:24;;;;;;;1.20;0.80;;;10.30;94.70;;;;;;5096168;28;20470;-63
2023/02/26 10:12:53;;;;;;;1.03;0.87;;;11.10;94.00;;;;;;5095875;28;20436;-63
2023/02/26 10:15:23;;;;;;;2.33;1.17;;;11.70;79.90;;;;;;5095330;28;20552;-61
2023/02/26 10:18:03;;;;;;;3.43;1.40;;;12.10;75.50;;;;;;5095592;28;20514;-64
2023/02/26 10:20:35;;;;;;;2.73;1.47;;;12.80;73.10;;;;;;5093992;28;20427;-63
2023/02/26 10:23:09;;;;;;;2.27;1.23;;;13.60;70.00;;;;;;5094011;28;20495;-64
2023/02/26 10:25:41;;;;;;;1.20;1.03;;;14.00;60.60;;;;;;5093559;28;20421;-64
2023/02/26 10:28:28;;;;;;;1.10;0.90;;;13.80;59.50;;;;;;5093990;28;20446;-63
2023/02/26 10:31:03;;;;;;;1.47;0.90;;;12.70;59.10;;;;;;5094522;28;20451;-64
2023/02/26 10:33:38;;;;;;;3.67;1.50;;;12.10;61.50;;;;;;5095095;28;20542;-63
2023/02/26 10:36:17;;;;;;;3.87;1.30;;;12.20;60.40;;;;;;5098354;28;20474;-64
2023/02/26 10:38:47;;;;;;;2.80;1.17;;;12.70;62.00;;;;;;5097788;28;20469;-62
2023/02/26 10:41:18;;;;;;;1.37;1.07;;;13.40;60.20;;;;;;5097911;28;20419;-63
2023/02/26 10:43:51;;;;;;;2.13;1.13;;;13.60;60.70;;;;;;5098157;28;20496;-60
2023/02/26 10:46:28;;;;;;;2.03;1.00;;;13.80;59.00;;;;;;5097171;28;20438;-62
2023/02/26 10:49:13;;;;;;;2.23;1.00;;;13.40;56.00;;;;;;5097379;28;20457;-64
2023/02/26 10:51:40;;;;;;;1.23;1.03;;;12.60;55.90;;;;;;5097953;28;20411;-63
2023/02/26 10:54:16;;;;;;;2.40;1.13;;;11.80;57.10;;;;;;5098280;28;20442;-63
2023/02/26 10:56:43;;;;;;;1.83;1.20;;;11.00;59.10;;;;;;5098912;28;20419;-64
2023/02/26 10:59:13;;;;;;;6.60;1.50;;;10.40;61.20;;;;;;5099123;28;20418;-63
2023/02/26 11:01:42;;;;;;;2.60;1.13;;;10.30;66.00;;;;;;5098639;28;20466;-62
2023/02/26 11:04:16;;;;;;;1.27;0.97;;;10.20;68.60;;;;;;5099374;28;20445;-64
2023/02/26 11:06:48;;;;;;;2.00;1.10;;;9.70;66.00;;;;;;5098994;28;20470;-63
2023/02/26 11:09:22;;;;;;;1.47;1.00;;;9.50;67.40;;;;;;5099455;28;20427;-64
2023/02/26 11:11:57;;;;;;;1.37;1.03;;;9.70;70.70;;;;;;5098678;28;20470;-64
2023/02/26 11:14:25;;;;;;;2.90;1.40;;;10.00;67.40;;;;;;5098800;28;20470;-61
2023/02/26 11:16:55;;;;;;;1.10;0.87;;;10.40;64.70;;;;;;5099822;28;20434;-61
2023/02/26 11:19:31;;;;;;;1.20;0.90;;;10.70;64.40;;;;;;5099641;28;20422;-58
2023/02/26 11:22:01;;;;;;;1.50;1.13;;;10.70;63.90;;;;;;5099831;28;20442;-62
2023/02/26 11:24:31;;;;;;;2.83;1.20;;;10.40;62.50;;;;;;5099261;28;20423;-61
2023/02/26 11:27:02;;;;;;;1.73;0.90;;;9.90;64.20;;;;;;5098497;28;20415;-57
2023/02/26 11:29:38;;;;;;;3.10;1.07;;;9.30;66.50;;;;;;5098519;28;20469;-62
2023/02/26 11:32:06;;;;;;;1.40;0.80;;;9.20;67.30;;;;;;5098494;28;20425;-63
2023/02/26 11:34:35;;;;;;;2.80;1.10;;;9.20;68.20;;;;;;5098577;28;20498;-63
2023/02/26 11:37:04;;;;;;;3.57;1.03;;;9.00;68.30;;;;;;5098599;28;20481;-63
2023/02/26 11:39:36;;;;;;;1.33;1.07;;;8.60;69.10;;;;;;5098565;28;20476;-63
2023/02/26 11:42:04;;;;;;;2.43;1.20;;;8.40;68.90;;;;;;5098906;28;20430;-59
2023/02/26 11:44:36;;;;;;;1.40;0.97;;;8.10;70.40;;;;;;5098666;28;20437;-63
2023/02/26 11:47:07;;;;;;;1.20;1.00;;;7.80;72.70;;;;;;5098072;28;20453;-63
2023/02/26 11:49:35;;;;;;;1.40;0.97;;;7.70;74.40;;;;;;5098753;28;20422;-63
2023/02/26 11:52:15;;;;;;;1.37;0.90;;;6.10;73.10;;;;;;5081374;28;20439;-64
2023/02/26 11:54:45;;;;;;;2.30;1.23;;;7.50;77.10;;;;;;5098502;28;20462;-62
2023/02/26 11:57:17;;;;;;;2.23;1.43;;;7.40;78.90;;;;;;5096711;28;20480;-64
2023/02/26 11:59:48;;;;;;;2.77;0.97;;;7.30;78.70;;;;;;5095895;28;20494;-65
2023/02/26 12:02:18;;;;;;;3.90;1.93;;;7.10;79.70;;;;;;5096326;28;20474;-63
2023/02/26 12:04:51;;;;;;;6.03;1.23;;;6.80;80.80;;;;;;5096801;28;20566;-65
2023/02/26 12:07:22;;;;;;;2.20;0.90;;;6.60;83.30;;;;;;5096865;28;20500;-64
2023/02/26 12:09:49;;;;;;;7.60;1.13;;;6.40;87.60;;;;;;5097012;28;20443;-64
2023/02/26 12:12:35;;;;;;;3.60;1.07;;;6.40;90.00;;;;;;5097312;28;20450;-62
2023/02/26 12:15:27;;;;;;;7.00;1.30;;;6.30;90.00;;;;;;5097267;28;20465;-63
2023/02/26 12:18:19;;;;;;;2.90;1.33;;;6.20;91.20;;;;;;5097126;28;20433;-65
2023/02/26 12:20:59;;;;;;;2.03;0.90;;;6.10;92.40;;;;;;5096931;28;20434;-61
2023/02/26 12:23:49;;;;;;;1.80;0.90;;;6.00;95.10;;;;;;5097448;28;20427;-62
2023/02/26 12:26:27;;;;;;;1.50;1.33;;;5.90;94.50;;;;;;5083610;28;20435;-63
2023/02/26 12:29:07;;;;;;;2.03;0.97;;;5.80;95.60;;;;;;5096554;28;20426;-63
2023/02/26 12:32:11;;;;;;;8.53;2.57;;;5.70;96.10;;;;;;5096079;28;20474;-63
2023/02/26 12:35:13;;;;;;;1.20;0.87;;;5.80;96.30;;;;;;5096655;28;20423;-63
2023/02/26 12:37:51;;;;;;;3.20;1.00;;;6.00;97.20;;;;;;5095730;28;20470;-62
2023/02/26 12:40:35;;;;;;;1.83;1.07;;;6.20;97.10;;;;;;5096671;28;20445;-64
2023/02/26 12:43:10;;;;;;;1.10;0.80;;;6.40;95.90;;;;;;5095247;28;20497;-63
2023/02/26 12:45:52;;;;;;;2.30;1.20;;;6.50;94.80;;;;;;5096029;28;20422;-63
2023/02/26 12:48:50;;;;;;;8.00;1.27;;;6.30;93.30;;;;;;5096169;28;20466;-63
2023/02/26 12:51:28;;;;;;;4.20;0.80;;;6.20;93.40;;;;;;5096352;28;20855;-63
2023/02/26 12:54:12;;;;;;;2.57;0.87;;;6.00;94.00;;;;;;5095541;28;20474;-62
2023/02/26 12:56:56;;;;;;;5.33;1.50;;;6.00;93.40;;;;;;5096697;28;20466;-62
2023/02/26 12:59:48;;;;;;;1.30;1.00;;;6.10;93.00;;;;;;5095828;28;20478;-61
2023/02/26 13:02:54;;;;;;;2.77;1.03;;;6.10;93.00;;;;;;5096384;28;20453;-62
2023/02/26 13:05:38;;;;;;;2.60;1.10;;;6.30;93.20;;;;;;5095884;28;20458;-64
2023/02/26 13:08:15;;;;;;;2.43;1.10;;;6.50;91.30;;;;;;5095209;28;20415;-63
2023/02/26 13:10:54;;;;;;;4.70;1.50;;;6.40;90.40;;;;;;5095545;28;20465;-61
2023/02/26 13:13:33;;;;;;;3.83;1.17;;;6.40;90.40;;;;;;5095689;28;20427;-62
2023/02/26 13:16:18;;;;;;;2.90;1.33;;;6.10;89.80;;;;;;5095407;28;20551;-62
2023/02/26 13:18:51;;;;;;;1.43;0.87;;;5.90;89.90;;;;;;5096276;28;20501;-64